Latest Weather Observations for Parawa West

IDS60801

Issued at 8:05 am CST Wednesday 30 July 2014 (issued every 30 minutes, with the page automatically refreshed every 10 minutes)

About weather observations | Map of weather stations | Latest weather observations for SA | Other Formats
Station Details ID: 023875 Name: SECOND VALLEY FOREST AWS Lat: -35.57 Lon: 138.29 Height: 341.0 m
Data from the previous 72 hours. | See also: Recent months at Parawa West
Date/Time
CST
Temp
°C
App
Temp
°C
Dew
Point
Rel
Hum
%
Delta-T
°C
Wind Press
QNH
hPa
Press
MSL
hPa
Rain
since 9 am
mm
Dir
 
Spd
km/h
Gust
km/h
Spd
kts
Gust
kts
30/08:00am 11.4 8.0 11.4 100 0.0 NW 20 35 11 19 1016.1 - 4.0
30/07:30am 11.4 7.3 11.4 100 0.0 NW 24 35 13 19 1016.1 1016.4 3.8
30/07:00am 11.3 7.2 11.3 100 0.0 NW 24 44 13 24 1016.0 - 3.8
30/06:30am 11.3 7.2 11.3 100 0.0 NW 24 44 13 24 1015.8 1016.1 3.8
30/06:00am 11.3 6.8 11.3 100 0.0 NW 26 44 14 24 1015.6 1015.9 3.8
30/05:30am 11.3 7.2 11.3 100 0.0 NNW 24 35 13 19 1015.3 1015.6 3.8
30/05:00am 11.3 6.8 11.3 100 0.0 NW 26 39 14 21 1015.1 - 3.8
30/04:30am 11.3 6.8 11.3 100 0.0 NNW 26 43 14 23 1015.1 1015.4 3.8
30/04:00am 11.2 7.4 11.2 100 0.0 NW 22 39 12 21 1015.3 - 3.6
30/03:30am 11.4 7.3 11.4 100 0.0 NW 24 35 13 19 1015.6 1015.9 3.6
30/03:00am 11.4 8.0 11.4 100 0.0 NW 20 33 11 18 1015.8 1016.1 3.6
30/02:30am 11.6 7.5 11.6 100 0.0 NW 24 35 13 19 1015.9 1016.2 3.6
30/02:00am 11.4 7.3 11.4 100 0.0 NW 24 41 13 22 1016.1 - 3.6
30/01:30am 11.7 7.7 11.7 100 0.0 NW 24 37 13 20 1016.3 1016.7 3.6
30/01:00am 11.7 8.4 11.7 100 0.0 NW 20 35 11 19 1016.1 - 3.6
30/12:30am 11.7 8.4 11.7 100 0.0 NW 20 35 11 19 1016.3 1016.7 3.6
30/12:00am 11.6 7.2 11.6 100 0.0 WNW 26 39 14 21 1016.5 1016.9 3.6
 
Date/Time
CST
Temp
°C
App
Temp
°C
Dew
Point
Rel
Hum
%
Delta-T
°C
Wind Press
QNH
hPa
Press
MSL
hPa
Rain
since 9 am
mm
Dir
 
Spd
km/h
Gust
km/h
Spd
kts
Gust
kts
29/11:30pm 11.8 7.0 11.6 99 0.1 WNW 28 44 15 24 1016.4 1016.8 3.4
29/11:00pm 12.0 7.6 11.8 99 0.1 NW 26 39 14 21 1016.6 - 3.4
29/10:30pm 11.8 7.8 11.8 100 0.0 WNW 24 35 13 19 1016.7 1017.1 3.4
29/10:00pm 11.8 7.7 11.6 99 0.1 WNW 24 37 13 20 1016.7 - 3.4
29/09:30pm 11.9 8.7 11.9 100 0.0 NW 20 32 11 17 1016.3 1016.7 3.4
29/09:00pm 12.0 8.8 12.0 100 0.0 NW 20 35 11 19 1016.3 1016.7 3.4
29/08:30pm 12.0 8.1 12.0 100 0.0 WNW 24 44 13 24 1016.1 1016.4 3.4
29/08:09pm 12.0 7.2 11.8 99 0.1 WNW 28 46 15 25 1016.0 - 3.4
29/08:00pm 11.9 7.5 11.6 98 0.2 W 26 48 14 26 1015.8 - 3.2
29/07:30pm 11.8 7.2 11.2 96 0.3 WNW 26 48 14 26 1015.6 1015.9 2.6
29/07:00pm 12.0 7.7 12.0 100 0.0 NW 26 43 14 23 1015.3 - 2.4
29/06:37pm 11.9 6.8 11.9 100 0.0 WNW 30 50 16 27 1015.1 - 2.4
29/06:30pm 11.9 6.8 11.9 100 0.0 NW 30 43 16 23 1015.1 1015.4 2.4
29/06:00pm 11.8 6.3 11.8 100 0.0 WNW 32 46 17 25 1014.7 1015.0 2.4
29/05:38pm 12.1 6.7 12.1 100 0.0 WNW 32 57 17 31 1014.5 - 2.4
29/05:30pm 12.1 7.1 12.1 100 0.0 WNW 30 46 16 25 1014.5 1014.8 2.4
29/05:00pm 12.4 7.4 12.1 98 0.2 WNW 30 48 16 26 1014.0 - 2.4
29/04:46pm 12.5 7.1 12.2 98 0.2 WNW 32 57 17 31 1013.9 - 2.4
29/04:30pm 12.7 7.1 12.1 96 0.3 WNW 33 46 18 25 1013.9 1014.3 2.4
29/04:00pm 12.4 7.0 12.1 98 0.2 WNW 32 57 17 31 1013.6 - 2.0
29/03:43pm 12.5 6.1 11.9 96 0.3 WNW 37 57 20 31 1013.4 - 1.8
29/03:30pm 12.6 6.2 12.1 97 0.3 WNW 37 54 20 29 1013.4 1013.7 1.8
29/03:00pm 12.6 6.6 12.1 97 0.3 NW 35 56 19 30 1013.2 1013.5 1.6
29/02:30pm 12.8 6.3 11.7 93 0.6 NW 37 56 20 30 1013.2 1013.5 1.6
29/02:13pm 12.7 7.0 11.8 94 0.5 NW 33 57 18 31 1013.2 - 1.6
29/02:00pm 12.6 7.1 11.8 95 0.4 NW 32 50 17 27 1013.2 - 1.6
29/01:30pm 12.8 6.6 11.5 92 0.7 NW 35 57 19 31 1013.2 1013.5 1.6
29/01:00pm 11.7 6.5 11.7 100 0.0 NW 30 50 16 27 1013.1 - 1.6
29/12:40pm 11.8 7.0 11.8 100 0.0 NW 28 46 15 25 1013.3 - 1.6
29/12:30pm 11.8 7.0 11.8 100 0.0 NW 28 44 15 24 1013.4 1013.7 1.6
29/12:08pm 11.8 6.3 11.8 100 0.0 NW 32 52 17 28 1013.5 - 1.6
29/12:00pm 11.7 6.5 11.7 100 0.0 NW 30 44 16 24 1013.5 1013.8 1.6
29/11:30am 11.6 6.4 11.6 100 0.0 NW 30 48 16 26 1013.6 1013.9 1.6
29/11:00am 11.5 5.9 11.5 100 0.0 NW 32 56 17 30 1013.9 - 1.6
29/10:30am 11.3 5.1 11.3 100 0.0 NW 35 56 19 30 1013.7 1014.1 1.6
29/10:00am 11.3 5.4 11.3 100 0.0 NW 33 57 18 31 1013.3 - 0.8
29/09:30am 11.2 5.9 11.2 100 0.0 NW 30 48 16 26 1013.1 1013.4 0.6
29/09:00am 11.1 5.8 11.1 100 0.0 NW 30 50 16 27 1013.2 1013.5 2.0
29/08:30am 11.0 5.1 11.0 100 0.0 NW 33 57 18 31 1013.2 1013.5 1.4
29/08:04am 10.9 5.9 10.9 100 0.0 NW 28 48 15 26 1013.0 - 0.4
29/08:00am 10.9 5.5 10.9 100 0.0 NW 30 46 16 25 1013.0 - 0.4
29/07:30am 10.9 5.5 10.9 100 0.0 NW 30 54 16 29 1012.9 1013.2 0.4
29/07:02am 10.9 4.9 10.9 100 0.0 NW 33 52 18 28 1012.8 - 0.2
29/07:00am 10.9 5.1 10.9 100 0.0 NW 32 50 17 27 1012.8 - 0.2
29/06:51am 10.8 5.4 10.8 100 0.0 NW 30 50 16 27 1012.5 - 0.0
29/06:30am 10.8 5.0 10.8 100 0.0 NW 32 46 17 25 1012.3 1012.6 0.0
29/06:00am 10.8 5.3 10.6 99 0.1 NW 30 50 16 27 1012.5 1012.8 0.0
29/05:33am 10.8 5.3 10.6 99 0.1 NW 30 50 16 27 1012.0 - 0.0
29/05:30am 10.8 4.9 10.6 99 0.1 NW 32 50 17 27 1012.0 1012.3 0.0
29/05:00am 10.8 5.3 10.5 98 0.2 NW 30 59 16 32 1012.6 - 0.0
29/04:30am 10.8 5.6 10.3 97 0.3 NW 28 48 15 26 1012.8 1013.1 0.0
29/04:16am 10.8 5.6 10.2 96 0.3 NNW 28 48 15 26 1012.5 - 0.0
29/04:00am 10.8 5.2 10.0 95 0.4 NNW 30 46 16 25 1012.5 - 0.0
29/03:30am 10.9 5.3 10.0 94 0.5 NNW 30 46 16 25 1012.4 1012.7 0.0
29/03:00am 10.9 4.8 9.8 93 0.6 NNW 32 52 17 28 1012.5 1012.8 0.0
29/02:32am 10.9 4.8 9.7 92 0.6 NNW 32 56 17 30 1012.5 - 0.0
29/02:30am 10.9 4.8 9.7 92 0.6 NNW 32 46 17 25 1012.4 1012.7 0.0
29/02:00am 11.0 4.7 9.6 91 0.7 NNW 33 52 18 28 1012.7 - 0.0
29/01:30am 10.9 5.0 9.2 89 0.9 NW 30 52 16 28 1013.1 1013.4 0.0
29/01:00am 10.9 4.7 9.2 89 0.9 NNW 32 46 17 25 1013.3 - 0.0
29/12:37am 10.7 4.4 9.0 89 0.9 NW 32 50 17 27 1013.5 - 0.0
29/12:30am 10.7 4.2 9.1 90 0.8 NW 33 50 18 27 1013.4 1013.7 0.0
29/12:09am 10.7 4.4 9.0 89 0.9 NW 32 52 17 28 1013.3 - 0.0
29/12:00am 10.8 4.5 8.9 88 1.0 NW 32 50 17 27 1013.5 1013.8 0.0
 
Date/Time
CST
Temp
°C
App
Temp
°C
Dew
Point
Rel
Hum
%
Delta-T
°C
Wind Press
QNH
hPa
Press
MSL
hPa
Rain
since 9 am
mm
Dir
 
Spd
km/h
Gust
km/h
Spd
kts
Gust
kts
28/11:30pm 10.7 3.8 8.8 88 1.0 NW 35 54 19 29 1013.6 1013.9 0.0
28/11:00pm 10.8 4.8 8.6 86 1.1 NW 30 50 16 27 1013.9 - 0.0
28/10:45pm 10.8 4.8 8.7 87 1.1 NW 30 48 16 26 1013.9 - 0.0
28/10:30pm 10.7 4.8 9.0 89 0.9 NNW 30 46 16 25 1014.3 1014.6 0.0
28/10:29pm 10.7 5.2 9.0 89 0.9 NNW 28 46 15 25 1014.3 - 0.0
28/10:00pm 10.7 5.7 9.5 92 0.6 NNW 26 41 14 22 1014.3 - 0.0
28/09:30pm 11.0 5.1 9.1 88 1.0 NW 30 43 16 23 1014.4 1014.7 0.0
28/09:00pm 11.1 5.2 9.2 88 1.0 NW 30 46 16 25 1014.3 1014.6 0.0
28/08:30pm 11.1 5.3 9.4 89 0.9 NW 30 46 16 25 1014.3 1014.6 0.0
28/08:15pm 11.1 5.2 9.2 88 1.0 NW 30 48 16 26 1014.3 - 0.0
28/08:00pm 11.2 5.4 9.3 88 1.0 NW 30 44 16 24 1014.2 - 0.0
28/07:30pm 11.1 6.1 9.5 90 0.8 NNW 26 41 14 22 1014.0 1014.4 0.0
28/07:00pm 11.2 6.2 9.6 90 0.8 NW 26 43 14 23 1014.0 - 0.0
28/06:30pm 11.0 6.5 9.9 93 0.6 NW 24 37 13 20 1014.0 1014.4 0.0
28/06:00pm 11.1 6.3 10.3 95 0.4 NNW 26 41 14 22 1013.7 1014.1 0.0
28/05:30pm 11.2 6.5 10.6 96 0.3 NW 26 41 14 22 1013.6 1013.9 0.0
28/05:14pm 11.4 6.3 10.6 95 0.4 NNW 28 48 15 26 1013.6 - 0.0
28/05:00pm 11.6 6.9 10.8 95 0.4 NNW 26 44 14 24 1013.7 - 0.0
28/04:30pm 11.7 6.7 10.8 94 0.5 NW 28 41 15 22 1013.7 1014.1 0.0
28/04:00pm 11.9 6.4 10.5 91 0.7 NW 30 46 16 25 1013.6 - 0.0
28/03:32pm 12.3 7.1 10.2 87 1.1 NNW 28 52 15 28 1013.4 - 0.0
28/03:30pm 12.4 7.2 10.1 86 1.2 NNW 28 43 15 23 1013.4 1013.7 0.0
28/03:00pm 12.7 8.0 10.8 88 1.0 NNW 26 37 14 20 1013.4 1013.7 0.0
28/02:30pm 12.3 8.0 10.9 91 0.7 NNW 24 41 13 22 1013.6 1013.9 0.0
28/02:00pm 12.1 7.1 11.0 93 0.6 NNW 28 43 15 23 1013.8 - 0.0
28/01:30pm 12.6 7.7 11.2 91 0.7 NW 28 46 15 25 1014.5 1014.8 0.0
28/01:06pm 12.1 7.0 10.7 91 0.7 NW 28 46 15 25 1014.8 - 0.0
28/01:00pm 12.0 6.7 11.2 95 0.4 NW 30 46 16 25 1014.9 - 0.0
28/12:38pm 11.6 6.2 11.0 96 0.3 NW 30 52 16 28 1015.0 - 0.0
28/12:30pm 11.6 6.6 11.1 97 0.3 NW 28 44 15 24 1015.3 1015.6 0.0
28/12:00pm 11.4 7.1 10.8 96 0.3 NW 24 37 13 20 1015.7 1016.0 0.0
28/11:30am 11.0 6.7 10.7 98 0.2 NW 24 41 13 22 1016.1 1016.4 0.0
28/11:00am 10.8 6.5 10.8 100 0.0 NW 24 44 13 24 1016.3 - 0.0
28/10:30am 10.9 6.3 10.9 100 0.0 NW 26 37 14 20 1016.5 1016.9 0.0
28/10:00am 11.0 6.8 11.0 100 0.0 NW 24 39 13 21 1016.8 - 0.0
28/09:30am 10.8 6.9 10.8 100 0.0 NW 22 33 12 18 1016.9 1017.3 0.0
28/09:00am 11.1 7.9 11.1 100 0.0 NW 19 33 10 18 1016.7 1017.1 0.0
28/08:30am 11.0 7.5 11.0 100 0.0 NW 20 33 11 18 1016.5 1016.9 0.0
28/08:00am 10.9 7.6 10.9 100 0.0 NW 19 30 10 16 1016.5 - 0.0
28/07:30am 11.0 7.5 11.0 100 0.0 NW 20 35 11 19 1016.4 1016.8 0.0
28/07:00am 10.9 7.4 10.9 100 0.0 NW 20 35 11 19 1016.0 - 0.0
28/06:30am 11.0 7.7 11.0 100 0.0 NW 19 30 10 16 1015.9 1016.2 0.0
28/06:00am 11.1 7.9 11.1 100 0.0 NW 19 28 10 15 1015.7 1016.0 0.0
28/05:30am 11.2 8.0 11.2 100 0.0 NW 19 28 10 15 1015.9 1016.2 0.0
28/05:00am 11.1 8.6 11.1 100 0.0 NW 15 26 8 14 1016.1 - 0.0
28/04:30am 11.0 8.4 10.8 99 0.1 NW 15 26 8 14 1016.2 1016.6 0.0
28/04:00am 10.8 8.5 10.5 98 0.2 NNW 13 20 7 11 1016.2 - 0.0
28/03:30am 10.8 8.1 10.3 97 0.3 NNW 15 22 8 12 1016.1 1016.4 0.0
28/03:00am 10.9 7.7 10.1 95 0.4 NNW 17 28 9 15 1016.2 1016.6 0.0
28/02:30am 10.9 8.1 10.0 94 0.5 NNW 15 20 8 11 1016.3 1016.7 0.0
28/02:00am 10.9 8.4 9.7 92 0.6 NNW 13 20 7 11 1016.6 - 0.0
28/01:30am 10.8 7.4 9.1 89 0.9 NNW 17 22 9 12 1016.7 1017.1 0.0
28/01:00am 10.7 7.6 9.0 89 0.9 NNW 15 26 8 14 1016.6 - 0.0
28/12:30am 10.8 6.7 8.7 87 1.1 NNW 20 32 11 17 1016.8 1017.2 0.0
28/12:00am 10.6 7.0 8.2 85 1.2 NNW 17 28 9 15 1016.9 1017.3 0.0
 
Date/Time
CST
Temp
°C
App
Temp
°C
Dew
Point
Rel
Hum
%
Delta-T
°C
Wind Press
QNH
hPa
Press
MSL
hPa
Rain
since 9 am
mm
Dir
 
Spd
km/h
Gust
km/h
Spd
kts
Gust
kts
27/11:30pm 10.8 7.3 8.7 87 1.1 NNW 17 30 9 16 1017.3 1017.6 0.0
27/11:00pm 11.0 7.5 8.6 85 1.2 NNW 17 26 9 14 1017.4 - 0.0
27/10:30pm 11.1 7.6 8.7 85 1.2 NNW 17 28 9 15 1017.7 1018.0 0.0
27/10:00pm 11.8 7.8 8.1 78 1.8 NNW 19 32 10 17 1017.6 - 0.0
27/09:30pm 11.8 7.8 8.1 78 1.8 NNW 19 26 10 14 1017.9 1018.2 0.0
27/09:00pm 11.3 8.4 8.3 82 1.5 NNW 13 24 7 13 1018.0 1018.3 0.0
27/08:30pm 11.1 9.1 8.7 85 1.2 NW 9 15 5 8 1018.1 1018.4 0.0
27/08:00pm 11.8 8.9 8.1 78 1.8 NW 13 22 7 12 1018.2 - 0.0
27/07:30pm 12.0 9.4 7.7 75 2.1 NW 11 26 6 14 1018.3 1018.6 0.0
27/07:00pm 12.2 9.5 7.5 73 2.3 NW 11 22 6 12 1018.1 - 0.0
27/06:30pm 12.4 9.0 7.5 72 2.4 NW 15 26 8 14 1017.8 1018.1 0.0
27/06:00pm 12.3 8.6 7.8 74 2.2 NW 17 32 9 17 1017.8 1018.1 0.0
27/05:30pm 12.0 8.7 7.9 76 2.0 NW 15 26 8 14 1017.8 1018.1 0.0
27/05:00pm 12.4 8.7 8.1 75 2.2 NW 17 32 9 17 1017.6 - 0.0
27/04:30pm 12.2 8.2 8.1 76 2.0 NW 19 32 10 17 1017.4 1017.7 0.0
27/04:00pm 12.2 7.9 7.9 75 2.1 NW 20 33 11 18 1017.4 - 0.0
27/03:30pm 12.0 7.9 8.5 79 1.8 NW 20 32 11 17 1017.3 1017.6 0.0
27/03:00pm 11.9 8.8 8.7 81 1.6 NW 15 28 8 15 1017.4 1017.7 0.0
27/02:30pm 12.0 7.9 8.7 80 1.7 NW 20 39 11 21 1017.9 1018.2 0.0
27/02:00pm 12.0 8.1 8.5 79 1.8 NW 19 30 10 16 1018.1 - 0.0
27/01:30pm 12.0 8.2 9.0 82 1.5 NW 19 39 10 21 1018.4 1018.7 0.0
27/01:00pm 12.4 8.3 8.7 78 1.9 NNW 20 37 11 20 1019.2 - 0.0
27/12:30pm 11.7 8.5 8.6 81 1.6 NW 15 26 8 14 1019.6 1020.0 0.0
27/12:00pm 11.2 7.6 8.4 83 1.4 NW 17 28 9 15 1020.1 1020.5 0.0
27/11:30am 11.1 8.0 8.8 86 1.2 NW 15 26 8 14 1020.9 1021.2 0.0
27/11:00am 10.5 7.3 8.3 86 1.1 NW 15 26 8 14 1021.2 - 0.0
27/10:30am 10.3 7.8 8.2 87 1.0 NW 11 22 6 12 1021.3 1021.7 0.0
27/10:00am 9.8 7.7 8.4 91 0.7 NW 9 19 5 10 1021.3 - 0.0
27/09:30am 9.6 7.5 8.2 91 0.7 NNW 9 22 5 12 1021.8 1022.2 0.0
27/09:00am 9.2 7.5 8.4 95 0.4 NW 7 19 4 10 1021.8 1022.2 0.0
27/08:30am 9.0 6.9 8.4 96 0.3 NNW 9 15 5 8 1022.1 1022.5 0.0

Other Formats:

Comma delimited format used in spreadsheet applications
http://www.bom.gov.au/fwo/IDS60801/IDS60801.94811.axf

JavaScript Object Notation format (JSON) in row-major order
http://www.bom.gov.au/fwo/IDS60801/IDS60801.94811.json